createdAt,value
2017-07-11T00:02:08.920Z,16.73
2017-07-11T00:04:36.384Z,20.63
2017-07-11T00:07:03.937Z,15.87
2017-07-11T00:09:31.382Z,18.13
2017-07-11T00:11:58.951Z,20.50
2017-07-11T00:14:26.425Z,15.27
2017-07-11T00:16:54.672Z,16.60
2017-07-11T00:19:22.147Z,11.77
2017-07-11T00:21:49.679Z,12.73
2017-07-11T00:24:17.144Z,20.70
2017-07-11T00:26:44.715Z,10.80
2017-07-11T00:29:12.198Z,17.23
2017-07-11T00:31:39.671Z,20.33
2017-07-11T00:34:07.171Z,16.83
2017-07-11T00:36:34.753Z,14.57
2017-07-11T00:39:02.206Z,14.40
2017-07-11T00:41:29.758Z,13.10
2017-07-11T00:43:57.223Z,13.37
2017-07-11T00:46:24.773Z,18.53
2017-07-11T00:48:52.345Z,14.07
2017-07-11T00:51:20.611Z,15.73
2017-07-11T00:53:48.090Z,14.87
2017-07-11T00:56:16.320Z,17.40
2017-07-11T00:58:43.780Z,14.47
2017-07-11T01:01:11.269Z,20.33
2017-07-11T01:03:39.585Z,13.40
2017-07-11T01:06:07.131Z,16.30
2017-07-11T01:08:34.652Z,17.87
2017-07-11T01:11:02.110Z,10.13
2017-07-11T01:13:29.566Z,19.00
2017-07-11T01:15:57.833Z,21.40
2017-07-11T01:18:25.409Z,22.30
2017-07-11T01:20:53.689Z,20.60
2017-07-11T01:23:21.954Z,13.13
2017-07-11T01:25:49.415Z,23.77
2017-07-11T01:28:17.679Z,14.63
2017-07-11T01:30:45.260Z,17.17
2017-07-11T01:33:13.495Z,17.20
2017-07-11T01:35:41.718Z,20.37
2017-07-11T01:38:09.959Z,22.27
2017-07-11T01:40:37.429Z,20.17
2017-07-11T01:43:05.653Z,23.50
2017-07-11T01:45:33.229Z,23.20
2017-07-11T01:48:00.709Z,22.97
2017-07-11T01:50:28.270Z,19.70
2017-07-11T01:52:55.838Z,22.10
2017-07-11T01:55:24.098Z,24.60
2017-07-11T01:57:52.646Z,22.30
2017-07-11T02:00:20.114Z,25.93
2017-07-11T02:02:47.599Z,24.93
2017-07-11T02:05:15.847Z,20.03
2017-07-11T02:07:43.326Z,26.47
2017-07-11T02:10:10.883Z,21.90
2017-07-11T02:12:38.536Z,29.97
2017-07-11T02:15:06.180Z,31.00
2017-07-11T02:17:33.669Z,28.77
2017-07-11T02:20:02.927Z,23.83
2017-07-11T02:22:30.450Z,27.83
2017-07-11T02:24:57.981Z,22.53
2017-07-11T02:27:25.446Z,30.50
2017-07-11T02:29:53.684Z,28.07
2017-07-11T02:32:21.168Z,28.73
2017-07-11T02:34:48.640Z,30.07
2017-07-11T02:37:16.906Z,33.00
2017-07-11T02:39:45.142Z,25.60
2017-07-11T02:42:12.633Z,36.83
2017-07-11T02:44:40.095Z,36.83
2017-07-11T02:47:08.366Z,26.37
2017-07-11T02:49:35.926Z,25.90
2017-07-11T02:52:03.435Z,29.97
2017-07-11T02:54:30.895Z,34.47
2017-07-11T02:56:58.388Z,27.47
2017-07-11T02:59:25.859Z,31.53
2017-07-11T03:01:53.323Z,32.80
2017-07-11T03:04:21.567Z,26.17
2017-07-11T03:06:49.143Z,42.43
2017-07-11T03:09:16.606Z,33.50
2017-07-11T03:11:44.843Z,25.40
2017-07-11T03:14:12.339Z,42.30
2017-07-11T03:16:39.899Z,24.87
2017-07-11T03:19:07.360Z,22.43
2017-07-11T03:21:35.630Z,24.90
2017-07-11T03:24:03.878Z,36.47
2017-07-11T03:26:31.366Z,33.53
2017-07-11T03:29:00.682Z,25.17
2017-07-11T03:31:28.142Z,22.40
2017-07-11T03:33:55.667Z,28.53
2017-07-11T03:36:23.183Z,37.17
2017-07-11T03:38:50.686Z,38.47
2017-07-11T03:41:18.238Z,33.37
2017-07-11T03:43:45.699Z,36.17
2017-07-11T03:46:13.270Z,34.77
2017-07-11T03:48:41.535Z,32.13
2017-07-11T03:51:09.820Z,27.83
2017-07-11T03:53:38.088Z,31.77
2017-07-11T03:56:05.554Z,37.07
2017-07-11T03:58:33.808Z,37.63
2017-07-11T04:01:01.286Z,32.80
2017-07-11T04:03:29.550Z,39.73
2017-07-11T04:05:57.027Z,31.80
2017-07-11T04:08:25.387Z,33.93
2017-07-11T04:10:53.653Z,33.60
2017-07-11T04:13:21.118Z,33.53
2017-07-11T04:15:49.394Z,26.83
2017-07-11T04:18:16.867Z,33.97
2017-07-11T04:20:45.108Z,36.80
2017-07-11T04:23:12.698Z,28.50
2017-07-11T04:25:40.946Z,38.40
2017-07-11T04:28:08.411Z,42.10
2017-07-11T04:30:35.879Z,32.90
2017-07-11T04:33:04.115Z,35.80
2017-07-11T04:35:31.585Z,30.10
2017-07-11T04:37:59.043Z,32.23
2017-07-11T04:40:26.516Z,38.80
2017-07-11T04:42:54.025Z,33.67
2017-07-11T04:45:21.498Z,43.53
2017-07-11T04:47:48.971Z,35.90
2017-07-11T04:50:16.447Z,31.83
2017-07-11T04:52:43.933Z,37.87
2017-07-11T04:55:11.408Z,32.13
2017-07-11T04:57:38.880Z,37.20
2017-07-11T05:00:06.355Z,37.90
2017-07-11T05:02:33.839Z,37.63
2017-07-11T05:05:02.075Z,43.77
2017-07-11T05:07:29.557Z,31.97
2017-07-11T05:09:57.025Z,34.17
2017-07-11T05:12:25.256Z,33.37
2017-07-11T05:14:52.727Z,35.83
2017-07-11T05:17:20.186Z,37.03
2017-07-11T05:19:47.695Z,39.40
2017-07-11T05:22:15.177Z,44.30
2017-07-11T05:24:42.670Z,35.50
2017-07-11T05:27:10.137Z,34.97
2017-07-11T05:29:38.376Z,26.13
2017-07-11T05:32:05.838Z,35.00
2017-07-11T05:34:33.298Z,29.87
2017-07-11T05:37:00.798Z,38.77
2017-07-11T05:39:28.360Z,35.43
2017-07-11T05:41:55.824Z,45.63
2017-07-11T05:44:23.298Z,26.87
2017-07-11T05:46:50.767Z,36.83
2017-07-11T05:49:18.240Z,32.60
2017-07-11T05:51:45.707Z,30.27
2017-07-11T05:54:13.261Z,24.47
2017-07-11T05:56:40.734Z,26.10
2017-07-11T05:59:08.247Z,29.70
2017-07-11T06:01:35.706Z,16.33
2017-07-11T06:04:03.181Z,19.67
2017-07-11T06:06:30.657Z,19.57
2017-07-11T06:08:58.114Z,24.53
2017-07-11T06:11:25.575Z,14.73
2017-07-11T06:13:53.337Z,15.63
2017-07-11T06:16:20.896Z,15.27
2017-07-11T06:18:48.367Z,14.13
2017-07-11T06:21:16.581Z,13.70
2017-07-11T06:23:44.054Z,12.73
2017-07-11T06:26:11.528Z,12.47
2017-07-11T06:28:39.015Z,9.83
2017-07-11T06:31:06.471Z,14.00
2017-07-11T06:33:34.707Z,9.03
2017-07-11T06:36:02.175Z,9.70
2017-07-11T06:38:29.648Z,15.67
2017-07-11T06:40:57.871Z,8.60
2017-07-11T06:43:25.351Z,13.70
2017-07-11T06:45:52.823Z,7.57
2017-07-11T06:48:20.295Z,10.07
2017-07-11T06:50:47.795Z,10.33
2017-07-11T06:53:15.268Z,12.07
2017-07-11T06:55:42.762Z,11.03
2017-07-11T06:58:11.000Z,10.13
2017-07-11T07:00:38.496Z,12.87
2017-07-11T07:03:05.949Z,6.97
2017-07-11T07:05:33.415Z,7.20
2017-07-11T07:08:01.638Z,6.47
2017-07-11T07:10:29.090Z,7.40
2017-07-11T07:12:56.576Z,10.83
2017-07-11T07:15:24.024Z,6.17
2017-07-11T07:17:51.501Z,5.87
2017-07-11T07:20:18.978Z,8.23
2017-07-11T07:22:46.433Z,12.33
2017-07-11T07:25:13.893Z,8.10
2017-07-11T07:27:41.355Z,7.43
2017-07-11T07:30:08.875Z,4.60
2017-07-11T07:32:36.337Z,5.43
2017-07-11T07:35:04.023Z,4.93
2017-07-11T07:37:31.468Z,4.67
2017-07-11T07:39:58.959Z,6.53
2017-07-11T07:42:26.419Z,3.30
2017-07-11T07:44:53.884Z,3.87
2017-07-11T07:47:21.342Z,2.67
2017-07-11T07:49:48.813Z,3.70
2017-07-11T07:52:16.288Z,4.20
2017-07-11T07:54:43.744Z,4.97
2017-07-11T07:57:11.213Z,5.50
2017-07-11T07:59:38.687Z,2.50
2017-07-11T08:02:06.901Z,8.77
2017-07-11T08:04:34.352Z,7.13
2017-07-11T08:07:01.819Z,3.60
2017-07-11T08:09:29.265Z,5.03
2017-07-11T08:11:56.715Z,7.63
2017-07-11T08:14:24.178Z,3.27
2017-07-11T08:16:51.635Z,2.97
2017-07-11T08:19:19.090Z,4.20
2017-07-11T08:21:46.557Z,6.47
2017-07-11T08:24:14.017Z,4.40
2017-07-11T08:26:41.513Z,3.53
2017-07-11T08:29:08.984Z,3.93
2017-07-11T08:31:37.229Z,3.10
2017-07-11T08:34:04.676Z,9.23
2017-07-11T08:36:32.126Z,5.77
2017-07-11T08:38:59.602Z,4.57
2017-07-11T08:41:27.058Z,4.47
2017-07-11T08:43:54.557Z,4.00
2017-07-11T08:46:22.027Z,4.90
2017-07-11T08:48:49.489Z,6.93
2017-07-11T08:51:16.966Z,5.40
2017-07-11T08:53:44.406Z,4.80
2017-07-11T08:56:11.875Z,7.80
2017-07-11T08:58:39.334Z,3.50
2017-07-11T09:01:06.790Z,7.97
2017-07-11T09:03:34.259Z,6.77
2017-07-11T09:06:01.710Z,4.73
2017-07-11T09:08:29.175Z,4.20
2017-07-11T09:10:56.683Z,5.27
2017-07-11T09:13:24.156Z,4.50
2017-07-11T09:15:54.840Z,5.67
2017-07-11T09:18:22.915Z,6.03
2017-07-11T09:20:54.091Z,5.10
2017-07-11T09:23:21.969Z,10.70
2017-07-11T09:25:49.540Z,6.70
2017-07-11T09:28:18.252Z,5.70
2017-07-11T09:30:46.502Z,5.37
2017-07-11T09:33:16.572Z,3.53
2017-07-11T09:35:45.977Z,4.60
2017-07-11T09:38:15.960Z,5.50
2017-07-11T09:40:43.685Z,5.90
2017-07-11T09:43:12.302Z,5.70
2017-07-11T09:45:40.165Z,8.10
2017-07-11T09:48:08.461Z,13.67
2017-07-11T09:50:36.703Z,7.60
2017-07-11T09:53:04.460Z,7.67
2017-07-11T09:55:32.509Z,7.50
2017-07-11T09:58:00.711Z,3.10
2017-07-11T10:00:30.167Z,4.00
2017-07-11T10:02:58.988Z,6.90
2017-07-11T10:05:29.088Z,5.83
2017-07-11T10:07:58.109Z,8.83
2017-07-11T10:10:26.410Z,7.63
2017-07-11T10:12:54.353Z,6.17
2017-07-11T10:15:22.967Z,8.83
2017-07-11T10:17:52.288Z,7.37
2017-07-11T10:20:22.447Z,6.67
2017-07-11T10:22:51.331Z,7.37
2017-07-11T10:25:19.853Z,6.70
2017-07-11T10:27:47.515Z,7.00
2017-07-11T10:30:15.151Z,7.40
2017-07-11T10:32:42.964Z,8.87
2017-07-11T10:35:10.562Z,9.97
2017-07-11T10:37:38.168Z,10.77
2017-07-11T10:40:06.687Z,9.60
2017-07-11T10:42:34.282Z,9.60
2017-07-11T10:45:02.199Z,12.47
2017-07-11T10:47:31.139Z,8.67
2017-07-11T10:49:58.613Z,8.57
2017-07-11T10:52:26.076Z,11.60
2017-07-11T10:54:54.366Z,10.47
2017-07-11T10:57:22.617Z,7.70
2017-07-11T10:59:50.086Z,6.50
2017-07-11T11:02:17.556Z,6.60
2017-07-11T11:04:45.827Z,5.93
2017-07-11T11:07:14.097Z,7.10
2017-07-11T11:09:42.376Z,6.47
2017-07-11T11:12:10.747Z,7.93
2017-07-11T11:14:38.228Z,6.23
2017-07-11T11:17:05.720Z,6.17
2017-07-11T11:19:33.219Z,4.93
2017-07-11T11:22:00.687Z,3.77
2017-07-11T11:24:28.188Z,3.43
2017-07-11T11:26:55.695Z,7.57
2017-07-11T11:29:24.001Z,3.70
2017-07-11T11:31:51.486Z,3.70
2017-07-11T11:34:19.006Z,11.13
2017-07-11T11:36:46.495Z,5.23
2017-07-11T11:39:14.035Z,3.87
2017-07-11T11:41:41.580Z,10.13
2017-07-11T11:44:09.040Z,5.83
2017-07-11T11:46:36.534Z,8.77
2017-07-11T11:49:04.010Z,5.40
2017-07-11T11:51:31.586Z,5.10
2017-07-11T11:53:59.835Z,6.27
2017-07-11T11:56:27.291Z,6.33
2017-07-11T11:58:54.776Z,10.40
2017-07-11T12:01:23.063Z,6.53
2017-07-11T12:03:51.283Z,7.60
2017-07-11T12:06:18.789Z,4.47
2017-07-11T12:08:47.012Z,6.60
2017-07-11T12:11:14.471Z,6.33
2017-07-11T12:13:41.947Z,6.80
2017-07-11T12:16:09.438Z,7.53
2017-07-11T12:18:37.702Z,9.83
2017-07-11T12:21:05.976Z,6.73
2017-07-11T12:23:33.443Z,10.87
2017-07-11T12:26:01.671Z,6.23
2017-07-11T12:28:29.259Z,8.57
2017-07-11T12:30:56.757Z,6.10
2017-07-11T12:33:24.259Z,5.23
2017-07-11T12:35:51.764Z,10.70
2017-07-11T12:38:19.222Z,8.70
2017-07-11T12:40:46.694Z,7.73
2017-07-11T12:43:14.166Z,6.37
2017-07-11T12:45:41.658Z,10.33
2017-07-11T12:48:09.230Z,5.90
2017-07-11T12:50:37.471Z,6.87
2017-07-11T12:53:05.138Z,4.77
2017-07-11T12:55:32.611Z,6.23
2017-07-11T12:58:00.078Z,6.20
2017-07-11T13:00:28.307Z,9.63
2017-07-11T13:02:55.797Z,4.03
2017-07-11T13:05:23.264Z,4.57
2017-07-11T13:07:51.513Z,12.93
2017-07-11T13:10:18.983Z,3.43
2017-07-11T13:12:46.448Z,14.43
2017-07-11T13:15:13.935Z,6.47
2017-07-11T13:17:41.515Z,4.07
2017-07-11T13:20:09.043Z,12.90
2017-07-11T13:22:37.298Z,5.17
2017-07-11T13:25:04.908Z,6.07
2017-07-11T13:27:32.393Z,7.43
2017-07-11T13:29:59.849Z,10.63
2017-07-11T13:32:27.426Z,8.30
2017-07-11T13:34:54.990Z,8.37
2017-07-11T13:37:22.482Z,6.97
2017-07-11T13:39:49.973Z,8.87
2017-07-11T13:42:17.455Z,8.30
2017-07-11T13:44:44.913Z,8.03
2017-07-11T13:47:12.668Z,6.17
2017-07-11T13:49:40.240Z,5.80
2017-07-11T13:52:07.722Z,8.83
2017-07-11T13:54:35.183Z,12.00
2017-07-11T13:57:02.647Z,7.33
2017-07-11T13:59:30.120Z,12.17
2017-07-11T14:01:57.637Z,13.63
2017-07-11T14:04:25.882Z,10.03
2017-07-11T14:06:53.338Z,6.10
2017-07-11T14:09:20.790Z,11.40
2017-07-11T14:11:48.367Z,8.10
2017-07-11T14:14:15.926Z,9.50
2017-07-11T14:16:43.471Z,6.13
2017-07-11T14:19:10.948Z,5.03
2017-07-11T14:21:39.179Z,7.07
2017-07-11T14:24:06.690Z,4.40
2017-07-11T14:26:34.954Z,8.97
2017-07-11T14:29:04.188Z,2.90
2017-07-11T14:31:31.667Z,6.93
2017-07-11T14:33:59.140Z,4.90
2017-07-11T14:36:26.611Z,2.70
2017-07-11T14:38:54.909Z,3.03
2017-07-11T14:41:22.504Z,7.57
2017-07-11T14:43:50.020Z,3.33
2017-07-11T14:46:18.269Z,4.83
2017-07-11T14:48:45.732Z,2.50
2017-07-11T14:51:13.224Z,2.40
2017-07-11T14:53:40.718Z,3.30
2017-07-11T14:56:08.237Z,2.13
2017-07-11T14:58:35.743Z,7.07
2017-07-11T15:01:04.030Z,5.43
2017-07-11T15:03:31.517Z,4.07
2017-07-11T15:05:58.956Z,2.70
2017-07-11T15:08:26.565Z,2.80
2017-07-11T15:10:54.130Z,6.17
2017-07-11T15:13:21.587Z,4.17
2017-07-11T15:15:49.050Z,9.40
2017-07-11T15:18:16.552Z,8.23
2017-07-11T15:20:44.058Z,6.90
2017-07-11T15:23:11.526Z,6.33
2017-07-11T15:25:38.994Z,6.13
2017-07-11T15:28:06.471Z,4.00
2017-07-11T15:30:34.010Z,18.93
2017-07-11T15:33:01.487Z,4.97
2017-07-11T15:35:28.959Z,4.63
2017-07-11T15:37:57.196Z,9.70
2017-07-11T15:40:24.683Z,12.57
2017-07-11T15:42:52.145Z,9.80
2017-07-11T15:45:19.627Z,7.60
2017-07-11T15:47:47.089Z,4.77
2017-07-11T15:50:14.575Z,7.17
2017-07-11T15:52:42.042Z,7.20
2017-07-11T15:55:09.507Z,6.70
2017-07-11T15:57:36.996Z,9.30
2017-07-11T16:00:05.223Z,11.80
2017-07-11T16:02:32.753Z,8.23
2017-07-11T16:05:00.232Z,7.33
2017-07-11T16:07:27.792Z,6.33
2017-07-11T16:09:55.292Z,16.87
2017-07-11T16:12:22.769Z,11.43
2017-07-11T16:14:50.260Z,5.63
2017-07-11T16:17:17.717Z,8.10
2017-07-11T16:19:45.227Z,11.13
2017-07-11T16:22:12.699Z,10.03
2017-07-11T16:24:40.163Z,11.77
2017-07-11T16:27:07.731Z,6.77
2017-07-11T16:29:35.218Z,15.07
2017-07-11T16:32:02.682Z,31.53
2017-07-11T16:34:30.175Z,10.60
2017-07-11T16:36:58.450Z,10.20
2017-07-11T16:39:26.710Z,14.20
2017-07-11T16:41:54.409Z,10.83
2017-07-11T16:44:21.894Z,10.83
2017-07-11T16:46:49.363Z,11.27
2017-07-11T16:49:16.863Z,15.83
2017-07-11T16:51:44.310Z,22.10
2017-07-11T16:54:11.783Z,14.83
2017-07-11T16:56:39.243Z,16.30
2017-07-11T16:59:06.745Z,11.23
2017-07-11T17:01:34.216Z,8.00
2017-07-11T17:04:01.668Z,6.13
2017-07-11T17:06:29.135Z,6.43
2017-07-11T17:08:56.630Z,8.17
2017-07-11T17:11:24.091Z,7.20
2017-07-11T17:13:51.534Z,5.33
2017-07-11T17:16:19.040Z,9.00
2017-07-11T17:41:53.690Z,14.83
2017-07-11T17:44:22.274Z,10.00
2017-07-11T17:46:50.536Z,13.67
2017-07-11T17:49:20.809Z,12.30
2017-07-11T17:51:49.143Z,11.40
2017-07-11T17:54:17.397Z,19.03
2017-07-11T17:56:44.891Z,10.93
2017-07-11T17:59:12.366Z,11.87
2017-07-11T18:01:41.675Z,14.73
2017-07-11T18:04:09.202Z,18.60
2017-07-11T18:06:37.434Z,10.60
2017-07-11T18:09:05.184Z,14.90
2017-07-11T18:11:32.678Z,13.90
2017-07-11T18:14:00.158Z,12.63
2017-07-11T18:16:27.690Z,12.07
2017-07-11T18:18:55.164Z,12.80
2017-07-11T18:21:22.705Z,10.73
2017-07-11T18:23:50.223Z,18.43
2017-07-11T18:26:17.690Z,14.03
2017-07-11T18:28:45.324Z,14.97
2017-07-11T18:31:12.821Z,14.03
2017-07-11T18:33:40.283Z,13.47
2017-07-11T18:36:07.775Z,14.27
2017-07-11T18:38:35.242Z,16.70
2017-07-11T18:41:02.703Z,19.53
2017-07-11T18:43:30.192Z,11.90
2017-07-11T18:45:57.680Z,10.43
2017-07-11T18:48:25.234Z,11.03
2017-07-11T18:50:52.703Z,10.70
2017-07-11T18:53:20.954Z,10.07
2017-07-11T18:55:48.565Z,12.23
2017-07-11T18:58:16.090Z,11.97
2017-07-11T19:00:43.551Z,12.10
2017-07-11T19:03:11.119Z,17.93
2017-07-11T19:05:39.623Z,17.30
2017-07-11T19:08:07.151Z,12.20
2017-07-11T19:10:35.428Z,12.43
2017-07-11T19:13:03.700Z,12.80
2017-07-11T19:15:31.987Z,17.97
2017-07-11T19:18:00.241Z,14.63
2017-07-11T19:20:27.713Z,11.53
2017-07-11T19:22:55.944Z,11.60
2017-07-11T19:25:23.417Z,12.93
2017-07-11T19:27:50.887Z,13.97
2017-07-11T19:30:18.352Z,12.03
2017-07-11T19:32:46.609Z,14.67
2017-07-11T19:35:14.075Z,15.27
2017-07-11T19:37:41.608Z,12.67
2017-07-11T19:40:09.078Z,12.87
2017-07-11T19:42:36.647Z,13.40
2017-07-11T19:45:04.129Z,13.60
2017-07-11T19:47:32.379Z,20.77
2017-07-11T19:49:59.872Z,12.17
2017-07-11T19:52:27.379Z,12.80
2017-07-11T19:54:54.872Z,15.67
2017-07-11T19:57:23.095Z,16.13
2017-07-11T19:59:50.580Z,15.97
2017-07-11T20:02:18.163Z,12.97
2017-07-11T20:04:45.652Z,14.10
2017-07-11T20:07:13.168Z,13.00
2017-07-11T20:09:40.645Z,14.87
2017-07-11T20:12:09.850Z,12.03
2017-07-11T20:14:41.266Z,16.07
2017-07-11T20:17:09.042Z,16.50
2017-07-11T20:19:37.182Z,17.13
2017-07-11T20:22:04.879Z,15.50
2017-07-11T20:24:33.126Z,14.23
2017-07-11T20:27:03.597Z,14.80
2017-07-11T20:29:31.549Z,15.00
2017-07-11T20:32:00.716Z,10.80
2017-07-11T20:34:29.820Z,11.53
2017-07-11T20:36:57.289Z,13.33
2017-07-11T20:39:25.575Z,13.07
2017-07-11T20:41:53.767Z,13.73
2017-07-11T20:44:22.142Z,16.83
2017-07-11T20:46:50.168Z,13.70
2017-07-11T20:49:17.751Z,14.43
2017-07-11T20:51:45.302Z,20.87
2017-07-11T20:54:12.780Z,13.37
2017-07-11T20:56:41.042Z,13.53
2017-07-11T20:59:09.489Z,17.00
2017-07-11T21:01:37.754Z,14.00
2017-07-11T21:04:05.230Z,17.03
2017-07-11T21:06:32.719Z,14.80
2017-07-11T21:09:01.005Z,18.90
2017-07-11T21:11:28.965Z,17.07
2017-07-11T21:13:56.460Z,18.83
2017-07-11T21:16:23.914Z,15.80
2017-07-11T21:18:53.471Z,14.43
2017-07-11T21:21:23.301Z,15.93
2017-07-11T21:23:52.804Z,16.00
2017-07-11T21:26:21.218Z,16.90
2017-07-11T21:28:49.725Z,14.30
2017-07-11T21:31:17.523Z,15.50
2017-07-11T21:33:45.765Z,14.73
2017-07-11T21:36:13.985Z,20.90
2017-07-11T21:38:42.590Z,22.47
2017-07-11T21:41:10.092Z,17.33
2017-07-11T21:43:37.584Z,16.83
2017-07-11T21:46:05.048Z,16.70
2017-07-11T21:48:32.520Z,14.93
2017-07-11T21:51:00.196Z,15.57
2017-07-11T21:53:28.488Z,24.13
2017-07-11T21:55:56.593Z,19.90
2017-07-11T21:58:24.856Z,17.07
2017-07-11T22:00:52.399Z,21.63
2017-07-11T22:03:19.910Z,15.53
2017-07-11T22:05:47.379Z,16.43
2017-07-11T22:08:14.879Z,14.23
2017-07-11T22:10:42.339Z,15.00
2017-07-11T22:13:09.884Z,15.90
2017-07-11T22:15:37.344Z,19.20
2017-07-11T22:18:04.811Z,15.83
2017-07-11T22:20:33.270Z,16.00
2017-07-11T22:23:00.755Z,12.00
2017-07-11T22:25:29.018Z,16.20
2017-07-11T22:27:57.293Z,19.07
2017-07-11T22:30:25.531Z,17.67
2017-07-11T22:32:53.008Z,14.80
2017-07-11T22:35:20.590Z,21.43
2017-07-11T22:37:48.861Z,20.63
2017-07-11T22:40:16.332Z,21.83
2017-07-11T22:42:44.570Z,23.43
2017-07-11T22:45:12.152Z,23.83
2017-07-11T22:47:40.149Z,26.13
2017-07-11T22:50:07.670Z,20.07
2017-07-11T22:52:35.227Z,24.13
2017-07-11T22:55:02.707Z,27.63
2017-07-11T22:57:31.057Z,16.93
2017-07-11T22:59:59.343Z,22.83
2017-07-11T23:02:26.835Z,30.43
2017-07-11T23:04:54.592Z,22.00
2017-07-11T23:07:22.933Z,25.17
2017-07-11T23:09:50.437Z,26.23
2017-07-11T23:12:17.930Z,17.23
2017-07-11T23:14:45.407Z,25.93
2017-07-11T23:17:12.867Z,29.17
2017-07-11T23:19:40.348Z,32.60
2017-07-11T23:22:08.598Z,20.60
2017-07-11T23:24:36.155Z,22.87
2017-07-11T23:27:03.629Z,30.27
2017-07-11T23:29:31.949Z,21.10
2017-07-11T23:31:59.460Z,31.17
2017-07-11T23:34:26.930Z,19.77
2017-07-11T23:36:55.163Z,23.10
2017-07-11T23:39:22.622Z,30.17
2017-07-11T23:41:50.203Z,32.07
2017-07-11T23:44:17.673Z,27.60
2017-07-11T23:46:45.930Z,41.13
2017-07-11T23:49:13.491Z,35.23
2017-07-11T23:51:40.948Z,32.87
2017-07-11T23:54:08.424Z,30.63
2017-07-11T23:56:36.785Z,31.20
2017-07-11T23:59:04.347Z,32.90
